Time;durP1;ratioP1;P1;durP2;ratioP2;P2;SDS_P1;SDS_P2;PMS_P1;PMS_P2;Temp;Humidity;BMP_temperature;BMP_pressure;BME280_temperature;BME280_humidity;BME280_pressure;Samples;Min_cycle;Max_cycle;Signal;HPM_P1;HPM_P2
2023/09/25 00:01:40;;;;;;;2.47;1.17;;;12.70;99.90;;;;;;5077177;28;20513;-87
2023/09/25 00:04:07;;;;;;;2.65;1.00;;;12.70;99.90;;;;;;5059222;28;20123;-91
2023/09/25 00:06:33;;;;;;;2.65;1.30;;;12.70;99.90;;;;;;5072960;28;20028;-88
2023/09/25 00:08:59;;;;;;;1.98;0.90;;;12.70;99.90;;;;;;5058200;28;20048;-89
2023/09/25 00:11:25;;;;;;;5.25;1.42;;;12.80;99.90;;;;;;5042908;28;20128;-89
2023/09/25 00:13:50;;;;;;;3.33;1.25;;;12.80;99.90;;;;;;5081627;28;20051;-91
2023/09/25 00:16:16;;;;;;;1.52;1.10;;;12.80;99.90;;;;;;5058985;28;20047;-88
2023/09/25 00:18:42;;;;;;;4.28;1.30;;;12.80;99.90;;;;;;5039310;28;20044;-88
2023/09/25 00:21:08;;;;;;;3.20;1.20;;;12.80;99.90;;;;;;5060185;28;20076;-89
2023/09/25 00:23:34;;;;;;;3.25;1.20;;;12.90;99.90;;;;;;5060245;28;20127;-88
2023/09/25 00:26:04;;;;;;;2.28;1.30;;;12.90;99.90;;;;;;5058815;28;20043;-89
2023/09/25 00:28:31;;;;;;;2.53;1.20;;;12.90;99.90;;;;;;5026006;28;20537;-87
2023/09/25 00:30:57;;;;;;;3.25;1.48;;;12.90;99.90;;;;;;5057418;28;20039;-89
2023/09/25 00:33:22;;;;;;;2.08;1.30;;;12.90;99.90;;;;;;5061405;28;20474;-89
2023/09/25 00:35:48;;;;;;;1.80;1.10;;;12.90;99.90;;;;;;5063723;28;20036;-91
2023/09/25 00:38:14;;;;;;;3.60;1.33;;;12.90;99.90;;;;;;5059966;28;20046;-89
2023/09/25 00:40:40;;;;;;;3.30;1.40;;;12.90;99.90;;;;;;5041259;28;20066;-86
2023/09/25 00:43:06;;;;;;;2.25;1.30;;;12.90;99.90;;;;;;5081111;28;20040;-91
2023/09/25 00:45:36;;;;;;;1.95;1.23;;;12.90;99.90;;;;;;5063032;28;20044;-88
2023/09/25 00:48:03;;;;;;;5.45;1.60;;;12.90;99.90;;;;;;5087558;28;20039;-89
2023/09/25 00:50:30;;;;;;;2.95;1.33;;;12.90;99.90;;;;;;5092502;28;20064;-91
2023/09/25 00:52:56;;;;;;;3.55;1.50;;;12.90;99.90;;;;;;5039090;28;20055;-89
2023/09/25 00:55:22;;;;;;;2.55;1.38;;;12.90;99.90;;;;;;5060881;28;20051;-92
2023/09/25 00:57:49;;;;;;;3.00;1.10;;;12.90;99.90;;;;;;5075834;28;20040;-89
2023/09/25 01:00:15;;;;;;;1.80;1.40;;;12.90;99.90;;;;;;5042242;28;20044;-90
2023/09/25 01:02:41;;;;;;;3.65;1.42;;;12.90;99.90;;;;;;5049861;28;20047;-89
2023/09/25 01:05:10;;;;;;;2.28;1.30;;;12.90;99.90;;;;;;5059067;28;20383;-87
2023/09/25 01:07:37;;;;;;;2.47;1.25;;;12.80;99.90;;;;;;5046902;28;20081;-91
2023/09/25 01:10:19;;;;;;;2.58;1.40;;;12.80;99.90;;;;;;5073868;28;20098;-90
2023/09/25 01:12:46;;;;;;;2.08;1.30;;;12.80;99.90;;;;;;5058985;28;20051;-89
2023/09/25 01:15:13;;;;;;;2.38;1.48;;;12.80;99.90;;;;;;5041524;28;20451;-91
2023/09/25 01:17:39;;;;;;;2.97;1.70;;;12.70;99.90;;;;;;5067834;28;20036;-89
2023/09/25 01:20:11;;;;;;;2.72;1.30;;;12.70;99.90;;;;;;5055173;28;20085;-89
2023/09/25 01:22:37;;;;;;;2.55;1.40;;;12.70;99.90;;;;;;5041342;28;20133;-92
2023/09/25 01:25:03;;;;;;;3.13;1.60;;;12.70;99.90;;;;;;5041435;28;20044;-87
2023/09/25 01:27:29;;;;;;;4.63;1.88;;;12.60;99.90;;;;;;5039271;28;20036;-87
2023/09/25 01:29:55;;;;;;;2.53;1.50;;;12.70;99.90;;;;;;5058684;28;20071;-89
2023/09/25 01:32:20;;;;;;;2.47;1.40;;;12.60;99.90;;;;;;5041819;28;20126;-92
2023/09/25 01:34:46;;;;;;;2.63;1.50;;;12.60;99.90;;;;;;5024421;28;20491;-93
2023/09/25 01:37:12;;;;;;;2.25;1.58;;;12.60;99.90;;;;;;5059867;28;20375;-89
2023/09/25 01:39:39;;;;;;;3.70;1.48;;;12.60;99.90;;;;;;5057181;28;20082;-89
2023/09/25 01:42:05;;;;;;;4.88;1.63;;;12.60;99.90;;;;;;5037339;28;20094;-90
2023/09/25 01:44:30;;;;;;;2.92;1.77;;;12.60;99.90;;;;;;5056273;28;20044;-90
2023/09/25 01:46:57;;;;;;;2.47;1.55;;;12.60;99.90;;;;;;5057193;28;20044;-86
2023/09/25 01:49:23;;;;;;;2.55;1.70;;;12.60;99.90;;;;;;5036960;28;20040;-88
2023/09/25 01:51:49;;;;;;;4.93;1.70;;;12.60;99.90;;;;;;5058507;28;20036;-88
2023/09/25 01:54:15;;;;;;;2.42;1.70;;;12.50;99.90;;;;;;5057187;28;20619;-89
2023/09/25 01:56:41;;;;;;;2.55;1.63;;;12.50;99.90;;;;;;5041379;28;20043;-89
2023/09/25 01:59:07;;;;;;;2.20;1.40;;;12.50;99.90;;;;;;5051963;28;20122;-89
2023/09/25 02:01:33;;;;;;;4.55;1.60;;;12.50;99.90;;;;;;5053650;28;20040;-91
2023/09/25 02:04:01;;;;;;;3.17;1.40;;;12.50;99.90;;;;;;5041105;28;20039;-85
2023/09/25 02:06:27;;;;;;;3.65;1.70;;;12.50;99.90;;;;;;5056735;28;20552;-87
2023/09/25 02:08:53;;;;;;;2.88;1.38;;;12.50;99.90;;;;;;5056345;28;20082;-90
2023/09/25 02:11:19;;;;;;;1.88;1.40;;;12.50;99.90;;;;;;5074466;28;20043;-89
2023/09/25 02:13:44;;;;;;;1.35;1.13;;;12.40;99.90;;;;;;5075051;28;20040;-93
2023/09/25 02:16:10;;;;;;;2.85;1.40;;;12.40;99.90;;;;;;5025557;28;20067;-95
2023/09/25 02:18:36;;;;;;;4.07;2.65;;;12.40;99.90;;;;;;5057140;28;20125;-90
2023/09/25 02:21:02;;;;;;;2.15;1.63;;;12.40;99.90;;;;;;5057519;28;20036;-93
2023/09/25 02:23:27;;;;;;;1.70;1.20;;;12.40;99.90;;;;;;5036861;28;20043;-91
2023/09/25 02:25:53;;;;;;;2.83;1.55;;;12.40;99.90;;;;;;5041367;28;20066;-89
2023/09/25 02:28:19;;;;;;;2.53;1.55;;;12.40;99.90;;;;;;5039576;28;20038;-91
2023/09/25 02:30:45;;;;;;;2.53;1.45;;;12.40;99.90;;;;;;5040671;28;20093;-90
2023/09/25 02:33:10;;;;;;;2.10;1.35;;;12.40;99.90;;;;;;5057065;28;20040;-93
2023/09/25 02:35:37;;;;;;;1.70;1.30;;;12.40;99.90;;;;;;5055761;28;20044;-87
2023/09/25 02:38:03;;;;;;;3.47;1.50;;;12.40;99.90;;;;;;5040869;28;20044;-89
2023/09/25 02:40:28;;;;;;;4.60;1.30;;;12.40;99.90;;;;;;5040083;28;20043;-88
2023/09/25 02:42:54;;;;;;;2.65;1.60;;;12.30;99.90;;;;;;5057173;28;20040;-91
2023/09/25 02:45:20;;;;;;;2.47;1.58;;;12.40;99.90;;;;;;5040855;28;20415;-90
2023/09/25 02:47:46;;;;;;;3.55;1.70;;;12.30;99.90;;;;;;5038955;28;20047;-89
2023/09/25 02:50:12;;;;;;;2.55;1.65;;;12.30;99.90;;;;;;5035210;28;20668;-90
2023/09/25 02:52:38;;;;;;;3.13;1.55;;;12.30;99.90;;;;;;5088125;28;20047;-90
2023/09/25 02:55:04;;;;;;;3.17;1.73;;;;;;;;;;5033408;28;20036;-90
2023/09/25 02:57:30;;;;;;;3.53;1.55;;;12.30;99.90;;;;;;5071636;28;20045;-90
2023/09/25 02:59:55;;;;;;;2.50;1.48;;;12.30;99.90;;;;;;5034113;28;20040;-88
2023/09/25 03:02:21;;;;;;;2.38;1.60;;;12.20;99.90;;;;;;5072518;28;20024;-91
2023/09/25 03:04:47;;;;;;;1.88;1.23;;;12.20;99.90;;;;;;5056850;28;20135;-89
2023/09/25 03:07:13;;;;;;;2.20;1.42;;;12.20;99.90;;;;;;5036839;28;20479;-90
2023/09/25 03:09:39;;;;;;;2.40;1.75;;;12.20;99.90;;;;;;5036579;28;20052;-89
2023/09/25 03:12:05;;;;;;;2.55;1.50;;;12.20;99.90;;;;;;5039701;28;20113;-88
2023/09/25 03:14:31;;;;;;;3.38;2.00;;;12.20;99.90;;;;;;5054970;28;20090;-87
2023/09/25 03:16:57;;;;;;;2.03;1.30;;;12.20;99.90;;;;;;5056250;28;20032;-87
2023/09/25 03:19:22;;;;;;;2.42;1.55;;;12.20;99.90;;;;;;5039974;28;20036;-87
2023/09/25 03:21:48;;;;;;;2.58;1.70;;;12.10;99.90;;;;;;5023291;28;20032;-89
2023/09/25 03:24:14;;;;;;;3.03;1.58;;;12.20;99.90;;;;;;5040149;28;20036;-90
2023/09/25 03:26:40;;;;;;;2.67;1.60;;;12.10;99.90;;;;;;5049597;28;20159;-89
2023/09/25 03:29:06;;;;;;;1.92;1.60;;;12.10;99.90;;;;;;5059068;28;20507;-91
2023/09/25 03:31:33;;;;;;;2.00;1.50;;;12.10;99.90;;;;;;5035655;28;20040;-87
2023/09/25 03:33:59;;;;;;;3.00;1.50;;;11.40;99.90;;;;;;5043869;28;20109;-91
2023/09/25 03:36:24;;;;;;;3.08;1.55;;;12.10;99.90;;;;;;5069142;28;20577;-91
2023/09/25 03:38:50;;;;;;;8.25;2.85;;;12.10;99.90;;;;;;5040868;28;20406;-88
2023/09/25 03:41:16;;;;;;;2.15;1.52;;;12.10;99.90;;;;;;5023844;28;20036;-91
2023/09/25 03:43:42;;;;;;;3.42;1.85;;;12.10;99.90;;;;;;5039131;28;20496;-91
2023/09/25 03:46:07;;;;;;;3.45;1.33;;;12.10;99.90;;;;;;5071156;28;20048;-87
2023/09/25 03:48:33;;;;;;;3.38;1.52;;;12.10;99.90;;;;;;5023225;28;20380;-88
2023/09/25 03:50:59;;;;;;;2.53;1.50;;;12.10;99.90;;;;;;5054538;28;20122;-91
2023/09/25 03:53:25;;;;;;;3.15;1.48;;;12.10;99.90;;;;;;5055057;28;20139;-88
2023/09/25 03:55:51;;;;;;;2.63;1.40;;;12.10;99.90;;;;;;5056385;28;20486;-90
2023/09/25 03:58:17;;;;;;;3.50;1.73;;;12.00;99.90;;;;;;5036941;28;20040;-90
2023/09/25 04:00:43;;;;;;;1.83;1.30;;;12.10;99.90;;;;;;5057802;28;20047;-94
2023/09/25 04:03:08;;;;;;;2.38;1.60;;;12.10;99.90;;;;;;5024196;28;20667;-88
2023/09/25 04:05:34;;;;;;;2.60;1.77;;;12.10;99.90;;;;;;5040541;28;20089;-89
2023/09/25 04:08:00;;;;;;;3.88;1.70;;;12.10;99.90;;;;;;5056092;28;20040;-92
2023/09/25 04:10:27;;;;;;;4.45;1.63;;;12.10;99.90;;;;;;5059965;28;20040;-92
2023/09/25 04:12:55;;;;;;;2.50;1.48;;;12.10;99.90;;;;;;5058885;28;20063;-94
2023/09/25 04:15:22;;;;;;;2.63;1.40;;;12.10;99.90;;;;;;5092132;28;20093;-90
2023/09/25 04:17:52;;;;;;;3.22;1.60;;;12.10;99.90;;;;;;5081769;28;20079;-89
2023/09/25 04:20:24;;;;;;;2.65;1.60;;;12.10;99.90;;;;;;5059610;28;20040;-88
2023/09/25 04:22:51;;;;;;;4.10;1.70;;;12.10;99.90;;;;;;5061385;28;20040;-90
2023/09/25 04:25:20;;;;;;;2.70;1.50;;;12.10;99.90;;;;;;5072158;28;20036;-87
2023/09/25 04:27:55;;;;;;;1.88;1.40;;;12.10;99.90;;;;;;5058268;28;20120;-90
2023/09/25 04:30:23;;;;;;;2.50;1.75;;;12.10;99.90;;;;;;5073711;28;20036;-93
2023/09/25 04:32:53;;;;;;;2.20;1.65;;;12.00;99.90;;;;;;5061660;28;20411;-91
2023/09/25 04:35:20;;;;;;;2.10;1.60;;;12.00;99.90;;;;;;5043304;28;20160;-90
2023/09/25 04:37:45;;;;;;;2.97;1.77;;;12.10;99.90;;;;;;5042328;28;20072;-89
2023/09/25 04:40:22;;;;;;;2.33;1.20;;;12.10;99.90;;;;;;5076748;28;20642;-90
2023/09/25 04:42:53;;;;;;;2.28;1.60;;;12.00;99.90;;;;;;5059336;28;20078;-92
2023/09/25 04:45:19;;;;;;;2.97;1.85;;;12.00;99.90;;;;;;5083593;28;20082;-90
2023/09/25 04:47:53;;;;;;;3.43;1.77;;;12.00;99.90;;;;;;5039858;28;20042;-89
2023/09/25 04:50:22;;;;;;;3.38;1.70;;;12.00;99.90;;;;;;5058239;28;20135;-91
2023/09/25 04:52:48;;;;;;;2.10;1.60;;;12.00;99.90;;;;;;5043294;28;20071;-88
2023/09/25 04:55:14;;;;;;;2.30;1.65;;;12.00;99.90;;;;;;5078077;28;20044;-89
2023/09/25 04:57:42;;;;;;;3.83;1.55;;;12.00;99.90;;;;;;5056982;28;20040;-92
2023/09/25 05:00:25;;;;;;;3.22;1.88;;;12.00;99.90;;;;;;5082937;28;20082;-89
2023/09/25 05:02:52;;;;;;;3.25;1.80;;;12.00;99.90;;;;;;5050703;28;20043;-92
2023/09/25 05:05:18;;;;;;;;;;;12.00;99.90;;;;;;5062160;28;20063;-91
2023/09/25 05:07:46;;;;;;;5.13;1.60;;;12.00;99.90;;;;;;5093016;28;19958;-93
2023/09/25 05:10:14;;;;;;;3.58;1.60;;;12.00;99.90;;;;;;5043074;28;20420;-94
2023/09/25 05:12:41;;;;;;;3.58;1.50;;;12.00;99.90;;;;;;5076462;28;20036;-94
2023/09/25 05:15:07;;;;;;;3.15;1.83;;;12.10;99.90;;;;;;5041611;28;20617;-92
2023/09/25 05:18:04;;;;;;;1.90;1.40;;;12.10;99.90;;;;;;5059414;28;20072;-93
2023/09/25 05:20:30;;;;;;;3.08;1.60;;;12.10;99.90;;;;;;5037605;28;20051;-92
2023/09/25 05:22:56;;;;;;;2.17;1.65;;;12.10;99.90;;;;;;5051821;28;20503;-91
2023/09/25 05:25:23;;;;;;;2.75;1.30;;;12.10;99.90;;;;;;5038015;28;20564;-88
2023/09/25 05:27:54;;;;;;;2.80;1.60;;;12.30;99.90;;;;;;5043779;28;20749;-90
2023/09/25 05:30:20;;;;;;;3.47;1.60;;;12.10;99.90;;;;;;5050810;28;20040;-92
2023/09/25 05:32:53;;;;;;;3.35;1.60;;;12.10;99.90;;;;;;5057971;28;20115;-87
2023/09/25 05:35:19;;;;;;;2.97;1.75;;;12.10;99.90;;;;;;5038315;28;20040;-90
2023/09/25 05:37:45;;;;;;;4.32;1.70;;;12.20;99.90;;;;;;5054308;28;20563;-87
2023/09/25 05:40:12;;;;;;;2.63;1.80;;;12.20;99.90;;;;;;5057028;28;20048;-91
2023/09/25 05:42:39;;;;;;;2.33;1.50;;;12.20;99.90;;;;;;5043179;28;20036;-92
2023/09/25 05:45:06;;;;;;;1.90;1.50;;;12.20;99.90;;;;;;5044430;28;20044;-91
2023/09/25 05:47:33;;;;;;;2.85;1.42;;;12.20;99.90;;;;;;5072855;28;20098;-89
2023/09/25 05:50:00;;;;;;;3.05;1.45;;;12.20;99.90;;;;;;5073511;28;20048;-93
2023/09/25 05:52:26;;;;;;;2.63;1.38;;;12.20;99.90;;;;;;5067064;28;20048;-91
2023/09/25 05:54:52;;;;;;;3.03;1.58;;;12.20;99.90;;;;;;5060457;28;20074;-89
2023/09/25 05:57:18;;;;;;;2.22;1.48;;;12.20;99.90;;;;;;5059299;28;20044;-89
2023/09/25 05:59:44;;;;;;;3.70;1.45;;;12.30;99.90;;;;;;5054349;28;20040;-92
2023/09/25 06:02:10;;;;;;;2.40;1.65;;;12.30;99.90;;;;;;5071989;28;20031;-91
2023/09/25 06:04:37;;;;;;;6.00;1.50;;;12.30;99.90;;;;;;5056982;28;20068;-87
2023/09/25 06:07:04;;;;;;;2.53;1.33;;;12.30;99.90;;;;;;5071358;28;20484;-88
2023/09/25 06:09:31;;;;;;;3.03;1.50;;;12.30;99.90;;;;;;5040644;28;20044;-94
2023/09/25 06:11:57;;;;;;;2.17;1.40;;;12.40;99.90;;;;;;5073586;28;20098;-88
2023/09/25 06:14:23;;;;;;;1.70;1.37;;;12.40;99.90;;;;;;5036274;28;20040;-92
2023/09/25 06:16:50;;;;;;;2.47;1.60;;;12.40;99.90;;;;;;5039683;28;20275;-89
2023/09/25 06:19:18;;;;;;;2.38;1.20;;;12.40;99.90;;;;;;5022599;28;20095;-92
2023/09/25 06:21:45;;;;;;;4.55;1.52;;;12.40;99.90;;;;;;5041221;28;20531;-93
2023/09/25 06:24:12;;;;;;;1.85;1.20;;;12.50;99.90;;;;;;5041078;28;20036;-90
2023/09/25 06:26:39;;;;;;;1.80;1.40;;;12.50;99.90;;;;;;5040326;28;20035;-93
2023/09/25 06:29:09;;;;;;;3.03;1.50;;;12.50;99.90;;;;;;5055225;28;20040;-88
2023/09/25 06:31:36;;;;;;;2.45;1.42;;;12.60;99.90;;;;;;5072614;28;20572;-87
2023/09/25 06:34:07;;;;;;;2.33;1.40;;;12.60;99.90;;;;;;5016730;28;20072;-88
2023/09/25 06:36:34;;;;;;;3.00;1.40;;;12.70;99.90;;;;;;5071708;28;20036;-88
2023/09/25 06:39:00;;;;;;;2.65;1.52;;;12.70;99.90;;;;;;5074451;28;20044;-92
2023/09/25 06:41:26;;;;;;;2.20;1.35;;;12.80;99.90;;;;;;5038629;28;20032;-93
2023/09/25 06:43:53;;;;;;;2.28;1.40;;;12.80;99.90;;;;;;5052088;28;20134;-92
2023/09/25 06:46:18;;;;;;;1.75;1.35;;;12.80;99.90;;;;;;5020581;28;20517;-90
2023/09/25 06:48:50;;;;;;;3.40;1.70;;;12.90;99.90;;;;;;5066021;28;20033;-90
2023/09/25 06:51:18;;;;;;;5.60;1.70;;;12.90;99.90;;;;;;5060068;28;20066;-88
2023/09/25 06:53:44;;;;;;;1.60;1.20;;;13.00;99.90;;;;;;5071659;28;20170;-88
2023/09/25 06:56:10;;;;;;;3.17;1.38;;;13.00;99.90;;;;;;5057171;28;20063;-92
2023/09/25 06:58:36;;;;;;;2.72;1.50;;;13.00;99.90;;;;;;5038116;28;20495;-88
2023/09/25 07:01:03;;;;;;;2.42;1.30;;;13.10;99.90;;;;;;5075040;28;20075;-93
2023/09/25 07:03:29;;;;;;;4.00;1.47;;;13.10;99.90;;;;;;5088372;28;20040;-91
2023/09/25 07:05:56;;;;;;;4.13;1.40;;;13.10;99.90;;;;;;5040542;28;20040;-92
2023/09/25 07:08:22;;;;;;;2.15;1.02;;;13.20;99.90;;;;;;5060310;28;20379;-91
2023/09/25 07:10:49;;;;;;;2.67;1.60;;;13.20;99.90;;;;;;5035364;28;20087;-92
2023/09/25 07:13:15;;;;;;;1.77;1.30;;;13.20;99.90;;;;;;5057978;28;20090;-90
2023/09/25 07:15:43;;;;;;;2.83;1.52;;;13.20;99.90;;;;;;5037049;28;20093;-90
2023/09/25 07:18:09;;;;;;;2.35;1.20;;;13.30;99.90;;;;;;5036020;28;20065;-87
2023/09/25 07:20:35;;;;;;;5.65;1.40;;;13.30;99.90;;;;;;5039083;28;20063;-89
2023/09/25 07:23:01;;;;;;;2.60;1.35;;;13.30;99.90;;;;;;5038193;28;20071;-90
2023/09/25 07:25:27;;;;;;;1.67;1.30;;;13.40;99.90;;;;;;5039557;28;20043;-87
2023/09/25 07:27:53;;;;;;;2.78;1.50;;;13.40;99.90;;;;;;5040878;28;20068;-89
2023/09/25 07:30:19;;;;;;;3.58;1.60;;;13.40;99.90;;;;;;5039623;28;20086;-91
2023/09/25 07:32:44;;;;;;;3.08;1.20;;;13.50;99.90;;;;;;5037176;28;20040;-90
2023/09/25 07:35:15;;;;;;;1.92;1.20;;;13.60;99.90;;;;;;5050082;28;20105;-92
2023/09/25 07:37:41;;;;;;;2.33;1.10;;;13.70;99.90;;;;;;5058463;28;20068;-88
2023/09/25 07:40:11;;;;;;;2.33;1.15;;;13.70;99.90;;;;;;5039101;28;20048;-90
2023/09/25 07:42:38;;;;;;;3.17;1.40;;;13.80;99.90;;;;;;5037120;28;20326;-89
2023/09/25 07:45:11;;;;;;;2.70;1.33;;;13.90;99.90;;;;;;5023816;28;20083;-90
2023/09/25 07:47:41;;;;;;;3.22;1.40;;;14.00;99.90;;;;;;5043921;28;20043;-91
2023/09/25 07:50:11;;;;;;;2.50;1.33;;;14.10;99.90;;;;;;5108843;28;20066;-89
2023/09/25 07:52:41;;;;;;;3.88;1.30;;;14.40;99.90;;;;;;5085916;28;20044;-88
2023/09/25 07:55:11;;;;;;;3.65;1.20;;;14.60;99.90;;;;;;5043990;28;20040;-93
2023/09/25 07:57:42;;;;;;;2.42;1.15;;;14.70;99.90;;;;;;5057420;28;20039;-90
2023/09/25 08:00:25;;;;;;;2.42;1.00;;;14.90;99.90;;;;;;5071737;28;20058;-90
2023/09/25 08:02:52;;;;;;;2.22;1.33;;;15.00;99.90;;;;;;5049191;28;20040;-89
2023/09/25 08:05:19;;;;;;;2.45;1.25;;;16.10;99.90;;;;;;5053324;28;20036;-91
2023/09/25 08:07:46;;;;;;;2.38;1.27;;;15.70;99.90;;;;;;5059748;28;20032;-91
2023/09/25 08:10:13;;;;;;;2.17;1.20;;;15.50;99.90;;;;;;5060635;28;20044;-92
2023/09/25 08:12:39;;;;;;;5.10;1.52;;;15.50;99.90;;;;;;5043293;28;20042;-89
2023/09/25 08:15:06;;;;;;;3.83;1.40;;;15.50;99.90;;;;;;5054769;28;20036;-93
2023/09/25 08:17:32;;;;;;;2.20;1.17;;;15.10;99.90;;;;;;5060480;28;20510;-89
2023/09/25 08:19:58;;;;;;;3.17;1.30;;;15.30;99.90;;;;;;5059803;28;20048;-90
2023/09/25 08:22:25;;;;;;;2.60;1.30;;;15.40;99.90;;;;;;5060117;28;20040;-91
2023/09/25 08:24:52;;;;;;;4.82;1.40;;;15.30;99.90;;;;;;5045980;28;20040;-89
2023/09/25 08:27:20;;;;;;;2.03;1.05;;;15.40;99.90;;;;;;5061847;28;20032;-89
2023/09/25 08:29:47;;;;;;;3.15;1.08;;;15.30;99.90;;;;;;5087500;28;20043;-89
2023/09/25 08:32:13;;;;;;;;;;;15.40;99.90;;;;;;5058021;28;20040;-90
2023/09/25 08:34:38;;;;;;;2.35;1.27;;;15.50;99.90;;;;;;5075492;28;20383;-89
2023/09/25 08:37:06;;;;;;;10.65;3.75;;;15.50;99.90;;;;;;5077045;28;20040;-90
2023/09/25 08:39:32;;;;;;;;;;;15.60;99.90;;;;;;5077199;28;20044;-90
2023/09/25 08:41:58;;;;;;;2.80;1.20;;;15.70;99.90;;;;;;5091089;28;19916;-92
2023/09/25 08:44:25;;;;;;;3.03;1.30;;;16.00;99.90;;;;;;5087475;28;20083;-86
2023/09/25 08:46:52;;;;;;;2.47;0.98;;;15.90;99.90;;;;;;5085614;28;20507;-92
2023/09/25 08:49:18;;;;;;;3.25;1.02;;;15.90;99.90;;;;;;5051638;28;20037;-92
2023/09/25 08:51:44;;;;;;;3.88;1.35;;;16.10;99.90;;;;;;5054490;28;20097;-90
2023/09/25 08:54:10;;;;;;;2.38;1.20;;;16.30;99.90;;;;;;5045210;28;20115;-91
2023/09/25 08:56:37;;;;;;;1.67;1.05;;;16.50;99.90;;;;;;5072567;28;20178;-89
2023/09/25 08:59:04;;;;;;;1.60;1.00;;;16.70;99.90;;;;;;5072529;28;20071;-87
2023/09/25 09:01:30;;;;;;;2.20;1.30;;;16.70;99.90;;;;;;5060631;28;20362;-86
2023/09/25 09:03:56;;;;;;;1.77;1.10;;;16.80;99.90;;;;;;5057550;28;20040;-92
2023/09/25 09:06:22;;;;;;;2.53;1.23;;;16.90;99.90;;;;;;5082115;28;20497;-92
2023/09/25 09:08:49;;;;;;;2.83;1.02;;;17.10;99.90;;;;;;5047971;28;20093;-92
2023/09/25 09:11:15;;;;;;;;;;;17.20;99.90;;;;;;5053768;28;20043;-89
2023/09/25 09:13:48;;;;;;;2.65;1.15;;;17.30;99.90;;;;;;5091922;28;19920;-92
2023/09/25 09:16:19;;;;;;;4.30;0.95;;;17.40;99.90;;;;;;5059424;28;20181;-90
2023/09/25 09:18:46;;;;;;;2.10;1.08;;;17.20;99.90;;;;;;5069909;28;20036;-90
2023/09/25 09:21:21;;;;;;;2.40;1.17;;;17.70;99.90;;;;;;5060751;28;20032;-92
2023/09/25 09:23:47;;;;;;;4.95;1.27;;;17.80;99.90;;;;;;5051029;28;20055;-89
2023/09/25 09:26:16;;;;;;;3.67;1.00;;;17.90;99.90;;;;;;5054018;28;20036;-91
2023/09/25 09:28:43;;;;;;;1.88;1.27;;;18.00;99.90;;;;;;5064657;28;20093;-87
2023/09/25 09:31:10;;;;;;;1.58;0.95;;;18.00;99.90;;;;;;5059105;28;20048;-90
2023/09/25 09:33:43;;;;;;;2.08;1.20;;;18.10;99.90;;;;;;5051231;28;20071;-90
2023/09/25 09:36:14;;;;;;;1.58;0.70;;;18.10;99.90;;;;;;5045098;28;20036;-92
2023/09/25 09:38:41;;;;;;;2.17;1.20;;;18.00;99.90;;;;;;5059846;28;20063;-91
2023/09/25 09:41:11;;;;;;;;;;;18.10;99.90;;;;;;5057835;28;20039;-88
2023/09/25 09:43:37;;;;;;;4.40;1.33;;;18.10;99.90;;;;;;5058329;28;19916;-90
2023/09/25 09:46:03;;;;;;;2.13;0.85;;;18.70;99.90;;;;;;5057707;28;20070;-92
2023/09/25 09:48:31;;;;;;;1.23;0.88;;;18.30;99.90;;;;;;5040928;28;20078;-89
2023/09/25 09:51:03;;;;;;;2.78;0.98;;;18.30;99.90;;;;;;5058291;28;20044;-93
2023/09/25 09:53:34;;;;;;;2.10;1.10;;;18.30;99.90;;;;;;5073772;28;20546;-89
2023/09/25 09:56:01;;;;;;;2.08;1.42;;;18.30;99.90;;;;;;5044682;28;20044;-89
2023/09/25 09:58:27;;;;;;;2.08;0.95;;;18.80;99.90;;;;;;5059240;28;20032;-88
2023/09/25 10:00:59;;;;;;;2.20;1.20;;;18.40;99.90;;;;;;5061113;28;20503;-91
2023/09/25 10:03:28;;;;;;;2.30;1.05;;;18.50;99.90;;;;;;5059194;28;20044;-91
2023/09/25 10:05:55;;;;;;;1.20;0.90;;;18.60;99.90;;;;;;5060695;28;20040;-89
2023/09/25 10:08:21;;;;;;;;;;;18.60;99.90;;;;;;5058881;28;20044;-87
2023/09/25 10:10:54;;;;;;;4.53;1.10;;;18.70;99.90;;;;;;5058160;28;19962;-90
2023/09/25 10:13:21;;;;;;;2.08;1.00;;;18.70;99.90;;;;;;5042023;28;20522;-86
2023/09/25 10:15:53;;;;;;;2.47;1.15;;;18.80;99.90;;;;;;5091584;28;20483;-92
2023/09/25 10:18:20;;;;;;;3.30;1.30;;;18.80;99.90;;;;;;5057147;28;20051;-89
2023/09/25 10:20:46;;;;;;;;;;;18.80;99.90;;;;;;5058463;28;20124;-90
2023/09/25 10:23:24;;;;;;;2.30;1.02;;;18.90;99.90;;;;;;5059416;28;19919;-87
2023/09/25 10:26:03;;;;;;;2.15;1.00;;;18.50;99.90;;;;;;5058129;28;20428;-92
2023/09/25 10:28:31;;;;;;;2.13;1.05;;;19.00;99.90;;;;;;5057684;28;20048;-89
2023/09/25 10:30:58;;;;;;;1.80;1.10;;;19.00;99.90;;;;;;5057382;28;20040;-89
2023/09/25 10:33:35;;;;;;;2.92;1.08;;;19.10;99.90;;;;;;5057576;28;20040;-88
2023/09/25 10:36:04;;;;;;;2.38;0.95;;;19.40;99.90;;;;;;5054331;28;20505;-90
2023/09/25 10:38:34;;;;;;;1.95;1.00;;;18.10;99.90;;;;;;5057181;28;20040;-91
2023/09/25 10:41:06;;;;;;;1.75;0.90;;;19.30;99.90;;;;;;5057912;28;20479;-85
2023/09/25 10:43:33;;;;;;;2.72;1.15;;;19.40;99.90;;;;;;5083479;28;20059;-91
2023/09/25 10:46:00;;;;;;;2.50;0.95;;;19.40;99.90;;;;;;5055121;28;20057;-93
2023/09/25 10:48:27;;;;;;;2.75;1.20;;;19.50;99.90;;;;;;5054977;28;20048;-93
2023/09/25 10:50:54;;;;;;;1.85;0.88;;;19.50;99.90;;;;;;5083140;28;20044;-94
2023/09/25 10:53:21;;;;;;;2.75;0.93;;;19.50;99.90;;;;;;5080232;28;20033;-92
2023/09/25 10:55:48;;;;;;;3.47;1.02;;;19.50;99.90;;;;;;5091144;28;20040;-93
2023/09/25 10:58:14;;;;;;;1.88;0.80;;;19.60;99.90;;;;;;5060300;28;20497;-95
2023/09/25 11:00:42;;;;;;;1.43;0.90;;;19.70;99.90;;;;;;5042458;28;20047;-91
2023/09/25 11:03:09;;;;;;;1.17;0.77;;;19.70;99.90;;;;;;5068986;28;20047;-92
2023/09/25 11:05:39;;;;;;;1.77;0.90;;;19.90;99.90;;;;;;5073903;28;20028;-89
2023/09/25 11:08:06;;;;;;;2.88;1.05;;;19.90;99.90;;;;;;5081859;28;20146;-88
2023/09/25 11:10:36;;;;;;;2.63;1.08;;;20.00;99.90;;;;;;5060189;28;20796;-91
2023/09/25 11:13:03;;;;;;;7.72;1.27;;;20.00;99.90;;;;;;5072733;28;20042;-90
2023/09/25 11:15:34;;;;;;;1.48;0.95;;;20.10;99.90;;;;;;5052540;28;20563;-90
2023/09/25 11:18:00;;;;;;;1.98;0.80;;;20.10;99.90;;;;;;5055722;28;20815;-87
2023/09/25 11:20:30;;;;;;;2.17;1.08;;;20.20;99.90;;;;;;5060161;28;20036;-93
2023/09/25 11:23:15;;;;;;;1.92;1.13;;;20.30;99.90;;;;;;5057161;28;20036;-89
2023/09/25 11:25:47;;;;;;;2.00;1.10;;;20.40;99.90;;;;;;5079698;28;20083;-91
2023/09/25 11:28:14;;;;;;;2.30;0.93;;;20.50;99.90;;;;;;5061861;28;20040;-93
2023/09/25 11:30:41;;;;;;;2.17;1.00;;;20.50;99.90;;;;;;5045805;28;20629;-90
2023/09/25 11:33:09;;;;;;;1.90;0.93;;;20.50;99.90;;;;;;5094920;28;20094;-88
2023/09/25 11:35:39;;;;;;;2.67;1.00;;;20.50;99.90;;;;;;5071160;28;20040;-90
2023/09/25 11:38:17;;;;;;;3.28;0.90;;;20.60;99.90;;;;;;5062194;28;20040;-88
2023/09/25 11:40:44;;;;;;;1.92;1.00;;;20.60;99.90;;;;;;5061513;28;20123;-91
2023/09/25 11:43:12;;;;;;;2.97;1.17;;;20.70;99.90;;;;;;5078206;28;20044;-93
2023/09/25 11:45:39;;;;;;;2.92;1.00;;;20.80;99.90;;;;;;5095395;28;20051;-89
2023/09/25 11:48:05;;;;;;;2.60;0.95;;;20.90;99.90;;;;;;5060739;28;20071;-88
2023/09/25 11:50:31;;;;;;;2.07;1.13;;;20.80;99.90;;;;;;5042989;28;20394;-90
2023/09/25 11:52:57;;;;;;;1.73;0.87;;;20.80;99.90;;;;;;5076598;28;20130;-88
2023/09/25 11:55:23;;;;;;;2.92;1.02;;;20.70;99.90;;;;;;5028150;28;20116;-88
2023/09/25 11:57:49;;;;;;;2.53;1.20;;;20.60;99.90;;;;;;5095359;28;20474;-90
2023/09/25 12:00:18;;;;;;;2.03;0.93;;;20.60;99.90;;;;;;5061154;28;20123;-88
2023/09/25 12:02:47;;;;;;;3.17;0.95;;;20.40;99.90;;;;;;5054121;28;20038;-92
2023/09/25 12:05:14;;;;;;;1.65;0.80;;;20.30;99.90;;;;;;5061198;28;20074;-91
2023/09/25 12:07:41;;;;;;;2.67;0.90;;;20.30;99.90;;;;;;5059604;28;20047;-90
2023/09/25 12:10:07;;;;;;;;;;;20.30;99.90;;;;;;5092824;28;20040;-91
2023/09/25 12:12:37;;;;;;;1.67;1.00;;;20.20;99.90;;;;;;5094446;28;19962;-91
2023/09/25 12:15:03;;;;;;;1.83;0.90;;;20.30;99.90;;;;;;5128981;27;20039;-91
2023/09/25 12:17:33;;;;;;;1.85;0.77;;;20.30;99.90;;;;;;5064608;28;20035;-92
2023/09/25 12:20:23;;;;;;;1.80;1.00;;;20.40;99.90;;;;;;5046240;28;20106;-88
2023/09/25 12:22:52;;;;;;;1.42;0.75;;;20.40;99.90;;;;;;5074953;28;20036;-91
2023/09/25 12:25:19;;;;;;;1.75;1.20;;;20.50;99.90;;;;;;5092419;28;20122;-92
2023/09/25 12:27:46;;;;;;;3.75;1.33;;;20.60;99.90;;;;;;5062070;28;20040;-89
2023/09/25 12:30:16;;;;;;;2.45;1.20;;;20.70;99.90;;;;;;5060679;28;20075;-89
2023/09/25 12:32:45;;;;;;;3.17;1.30;;;20.70;99.90;;;;;;5058262;28;20070;-92
2023/09/25 12:35:14;;;;;;;2.67;1.10;;;20.70;99.90;;;;;;5060362;28;20093;-92
2023/09/25 12:37:52;;;;;;;4.57;0.90;;;20.70;99.90;;;;;;5089166;28;20032;-87
2023/09/25 12:40:29;;;;;;;2.92;1.00;;;20.30;99.90;;;;;;5066112;28;20040;-86
2023/09/25 12:42:55;;;;;;;2.55;0.90;;;20.60;99.90;;;;;;5052500;28;20040;-91
2023/09/25 12:45:21;;;;;;;1.98;0.93;;;20.60;99.90;;;;;;5085617;28;20052;-91
2023/09/25 12:47:47;;;;;;;3.63;1.00;;;20.60;99.90;;;;;;5039845;28;20099;-93
2023/09/25 12:50:21;;;;;;;2.13;1.10;;;20.50;99.90;;;;;;5048128;28;20087;-93